LKTB/BRQ METAR and TAF weather

Enter ICAO airport designator
Station Type Date Time Source
LKTB METAR 2021/05/13 05:30 UTC NOAA

LKTB 130530Z 12004KT 7000 -RA SCT009 OVC013 13/11 Q1001 TEMPO 3000 RA BR


Station Type Date Time Source
LKTB Decoded METAR 2021/05/13 05:30 UTC NOAA

Brno / Turany, Czech Republic (LKTB) 49-09N 016-42E 246M
May 13, 2021 - 01:30 AM EDT / 2021.05.13 0530 UTC
Wind: from the ESE (120 degrees) at 5 MPH (4 KT):0
Visibility: 4 mile(s):0
Sky conditions: overcast
Weather: light rain
Temperature: 55 F (13 C)
Dew Point: 51 F (11 C)
Relative Humidity: 87%
Pressure (altimeter): 29.56 in. Hg (1001 hPa)
ob: LKTB 130530Z 12004KT 7000 -RA SCT009 OVC013 13/11 Q1001 TEMPO 3000 RA BR
cycle: 5

Station Type Date Time Source
LKTB TAF 2021/05/13 06:15 UTC NOAA

TAF LKTB 130500Z 1306/1412 08004KT 9999 SCT027
TEMPO 1306/1412 6000 RA OVC012 PROB30
TEMPO 1307/1319 3000 SHRA BKN020CB
BECMG 1313/1315 30012KT

Example: see airport list